sensor_id;sensor_type;location;lat;lon;timestamp;P1;P2;P0
76043;PMS7003;64740;34.694;33.088;2023-05-18T00:01:37;5.5;4.7;3.5
76043;PMS7003;64740;34.694;33.088;2023-05-18T00:07:11;6.2;5.5;4
76043;PMS7003;64740;34.694;33.088;2023-05-18T00:12:11;6.2;5.3;4.3
76043;PMS7003;64740;34.694;33.088;2023-05-18T00:17:01;6.7;5.6;4.4
76043;PMS7003;64740;34.694;33.088;2023-05-18T00:21:45;7.1;5.7;4.4
76043;PMS7003;64740;34.694;33.088;2023-05-18T00:26:41;5.3;5;4
76043;PMS7003;64740;34.694;33.088;2023-05-18T00:31:59;5.8;4.9;3.7
76043;PMS7003;64740;34.694;33.088;2023-05-18T00:36:37;5.5;4.7;3.6
76043;PMS7003;64740;34.694;33.088;2023-05-18T00:41:27;6.6;4.9;3.8
76043;PMS7003;64740;34.694;33.088;2023-05-18T00:47:11;7.5;5.8;4.3
76043;PMS7003;64740;34.694;33.088;2023-05-18T00:51:47;7.8;5.4;4.2
76043;PMS7003;64740;34.694;33.088;2023-05-18T00:56:37;7.9;6.3;4.5
76043;PMS7003;64740;34.694;33.088;2023-05-18T01:01:39;7.7;6.8;5
76043;PMS7003;64740;34.694;33.088;2023-05-18T01:07:09;8.2;6.1;4.7
76043;PMS7003;64740;34.694;33.088;2023-05-18T01:11:30;8.4;6.4;4.7
76043;PMS7003;64740;34.694;33.088;2023-05-18T01:16:44;7.7;6.6;4.8
76043;PMS7003;64740;34.694;33.088;2023-05-18T01:22:11;8;7;5
76043;PMS7003;64740;34.694;33.088;2023-05-18T01:27:11;7.7;6.4;4.7
76043;PMS7003;64740;34.694;33.088;2023-05-18T01:31:27;9.1;6.9;5
76043;PMS7003;64740;34.694;33.088;2023-05-18T01:36:47;8.8;7.3;4.9
76043;PMS7003;64740;34.694;33.088;2023-05-18T01:42:10;8.2;7.2;5.4
76043;PMS7003;64740;34.694;33.088;2023-05-18T01:46:56;10.1;7.5;5.4
76043;PMS7003;64740;34.694;33.088;2023-05-18T01:52:02;8.6;6.7;5
76043;PMS7003;64740;34.694;33.088;2023-05-18T01:56:27;10.3;8;5.7
76043;PMS7003;64740;34.694;33.088;2023-05-18T02:01:45;10.2;8.5;5.8
76043;PMS7003;64740;34.694;33.088;2023-05-18T02:06:37;10.8;9.1;6.1
76043;PMS7003;64740;34.694;33.088;2023-05-18T02:11:27;11.7;8.9;6.2
76043;PMS7003;64740;34.694;33.088;2023-05-18T02:16:27;10.4;8.7;6.1
76043;PMS7003;64740;34.694;33.088;2023-05-18T02:21:37;10.9;9.2;6.3
76043;PMS7003;64740;34.694;33.088;2023-05-18T02:27:09;10.7;8.8;6.3
76043;PMS7003;64740;34.694;33.088;2023-05-18T02:31:29;11;8.3;5.8
76043;PMS7003;64740;34.694;33.088;2023-05-18T02:37:09;10.4;9.2;6.3
76043;PMS7003;64740;34.694;33.088;2023-05-18T02:42:11;10.1;8.4;5.8
76043;PMS7003;64740;34.694;33.088;2023-05-18T02:46:35;11.7;8.6;6.1
76043;PMS7003;64740;34.694;33.088;2023-05-18T02:51:27;11;8.5;5.9
76043;PMS7003;64740;34.694;33.088;2023-05-18T02:56:51;11.6;9.6;6.2
76043;PMS7003;64740;34.694;33.088;2023-05-18T03:02:09;11.2;8.8;6.1
76043;PMS7003;64740;34.694;33.088;2023-05-18T03:06:37;10;8.3;5.7
76043;PMS7003;64740;34.694;33.088;2023-05-18T03:12:09;11.2;9.4;6.5
76043;PMS7003;64740;34.694;33.088;2023-05-18T03:17:09;10.5;8.8;6.4
76043;PMS7003;64740;34.694;33.088;2023-05-18T03:21:49;10.9;9.1;6.5
76043;PMS7003;64740;34.694;33.088;2023-05-18T03:26:27;9.6;8;5.7
76043;PMS7003;64740;34.694;33.088;2023-05-18T03:31:49;10.9;8.8;6.1
76043;PMS7003;64740;34.694;33.088;2023-05-18T03:36:57;10.6;8.8;6.1
76043;PMS7003;64740;34.694;33.088;2023-05-18T03:41:49;10.6;9.3;6.3
76043;PMS7003;64740;34.694;33.088;2023-05-18T03:46:39;12.8;9.1;6.4
76043;PMS7003;64740;34.694;33.088;2023-05-18T03:51:59;11.8;8.8;6.3
76043;PMS7003;64740;34.694;33.088;2023-05-18T03:56:57;10.3;8.6;6.6
76043;PMS7003;64740;34.694;33.088;2023-05-18T04:01:47;10.9;8.7;6.4
76043;PMS7003;64740;34.694;33.088;2023-05-18T04:06:37;11.6;8.9;6.3
76043;PMS7003;64740;34.694;33.088;2023-05-18T04:11:29;11.8;10.2;7.7
76043;PMS7003;64740;34.694;33.088;2023-05-18T04:16:27;11.7;10.2;6.8
76043;PMS7003;64740;34.694;33.088;2023-05-18T04:22:01;12.6;9.3;6.3
76043;PMS7003;64740;34.694;33.088;2023-05-18T04:26:59;11.7;10.3;7
76043;PMS7003;64740;34.694;33.088;2023-05-18T04:31:33;13.2;10.5;7.1
76043;PMS7003;64740;34.694;33.088;2023-05-18T04:37:09;10;8.7;5.5
76043;PMS7003;64740;34.694;33.088;2023-05-18T04:41:37;10.7;8.7;6.2
76043;PMS7003;64740;34.694;33.088;2023-05-18T04:46:27;11.4;9;6.3
76043;PMS7003;64740;34.694;33.088;2023-05-18T04:51:55;10.9;9;6.2
76043;PMS7003;64740;34.694;33.088;2023-05-18T04:57:09;10.1;8.3;6
76043;PMS7003;64740;34.694;33.088;2023-05-18T05:01:27;10.7;8;5.5
76043;PMS7003;64740;34.694;33.088;2023-05-18T05:06:57;10.7;8;5.5
76043;PMS7003;64740;34.694;33.088;2023-05-18T05:11:47;11.5;8.9;6.2
76043;PMS7003;64740;34.694;33.088;2023-05-18T05:16:49;10.3;8.6;6.3
76043;PMS7003;64740;34.694;33.088;2023-05-18T05:21:27;9.9;8.1;5.7
76043;PMS7003;64740;34.694;33.088;2023-05-18T05:26:27;11;8.2;5.5
76043;PMS7003;64740;34.694;33.088;2023-05-18T05:32:09;10.2;7.5;5.2
76043;PMS7003;64740;34.694;33.088;2023-05-18T05:37:01;10.9;8;5.7
76043;PMS7003;64740;34.694;33.088;2023-05-18T05:41:49;9.4;7.2;5.1
76043;PMS7003;64740;34.694;33.088;2023-05-18T05:47:09;8.1;5.3;3.8
76043;PMS7003;64740;34.694;33.088;2023-05-18T05:51:37;7.8;6.6;4.5
76043;PMS7003;64740;34.694;33.088;2023-05-18T05:56:49;9.2;7.1;5.1
76043;PMS7003;64740;34.694;33.088;2023-05-18T06:01:57;7.1;5.8;4
76043;PMS7003;64740;34.694;33.088;2023-05-18T06:07:09;7.6;5.5;3.7
76043;PMS7003;64740;34.694;33.088;2023-05-18T06:11:45;7.2;5.2;3.6
76043;PMS7003;64740;34.694;33.088;2023-05-18T06:17:09;7;5.2;3.7
76043;PMS7003;64740;34.694;33.088;2023-05-18T06:22:09;6.8;5.1;3.5
76043;PMS7003;64740;34.694;33.088;2023-05-18T06:26:49;6;4.6;3.2
76043;PMS7003;64740;34.694;33.088;2023-05-18T06:31:43;6.5;5.1;3.4
76043;PMS7003;64740;34.694;33.088;2023-05-18T06:36:57;7;5.4;3.7
76043;PMS7003;64740;34.694;33.088;2023-05-18T06:41:55;8;5.8;3.6
76043;PMS7003;64740;34.694;33.088;2023-05-18T06:46:53;6.9;4.9;3.3
76043;PMS7003;64740;34.694;33.088;2023-05-18T06:51:39;6.9;5.4;3.5
76043;PMS7003;64740;34.694;33.088;2023-05-18T06:57:09;8.4;6.2;3.7
76043;PMS7003;64740;34.694;33.088;2023-05-18T07:01:37;8.3;5.5;3.4
76043;PMS7003;64740;34.694;33.088;2023-05-18T07:06:53;8.4;5.6;3.6
76043;PMS7003;64740;34.694;33.088;2023-05-18T07:11:39;7.3;5.5;3.6
76043;PMS7003;64740;34.694;33.088;2023-05-18T07:16:47;7;5.1;3.2
76043;PMS7003;64740;34.694;33.088;2023-05-18T07:21:27;7.9;5.7;3.9
76043;PMS7003;64740;34.694;33.088;2023-05-18T07:26:57;7.1;5.5;3.9
76043;PMS7003;64740;34.694;33.088;2023-05-18T07:31:57;8.3;5.3;3.9
76043;PMS7003;64740;34.694;33.088;2023-05-18T07:36:37;7.9;5.1;3.4
76043;PMS7003;64740;34.694;33.088;2023-05-18T07:42:07;7.7;5.6;4
76043;PMS7003;64740;34.694;33.088;2023-05-18T07:46:59;8;5.8;4
76043;PMS7003;64740;34.694;33.088;2023-05-18T07:51:37;8.9;6;4.1
76043;PMS7003;64740;34.694;33.088;2023-05-18T07:56:53;9.1;6.9;4.7
76043;PMS7003;64740;34.694;33.088;2023-05-18T08:02:07;9.4;6.9;4.6
76043;PMS7003;64740;34.694;33.088;2023-05-18T08:06:27;9.8;7.1;4.7
76043;PMS7003;64740;34.694;33.088;2023-05-18T08:11:55;9;6.7;4.6
76043;PMS7003;64740;34.694;33.088;2023-05-18T08:16:53;10.9;8;5.3
76043;PMS7003;64740;34.694;33.088;2023-05-18T08:21:59;8.8;7.1;4.8
76043;PMS7003;64740;34.694;33.088;2023-05-18T08:26:43;9.4;6.7;4.7
76043;PMS7003;64740;34.694;33.088;2023-05-18T08:31:27;10.2;8.1;5.2
76043;PMS7003;64740;34.694;33.088;2023-05-18T08:37:07;9.6;7.6;5.2
76043;PMS7003;64740;34.694;33.088;2023-05-18T08:42:09;9.2;7.2;4.6
76043;PMS7003;64740;34.694;33.088;2023-05-18T08:46:27;7.9;6.7;4.7
76043;PMS7003;64740;34.694;33.088;2023-05-18T08:52:07;10.7;8.2;5.2
76043;PMS7003;64740;34.694;33.088;2023-05-18T08:56:47;10.9;8;5.2
76043;PMS7003;64740;34.694;33.088;2023-05-18T09:01:27;9.2;6.9;4.9
76043;PMS7003;64740;34.694;33.088;2023-05-18T09:06:49;11.2;8;5.4
76043;PMS7003;64740;34.694;33.088;2023-05-18T09:12:07;8.9;7.2;4.9
76043;PMS7003;64740;34.694;33.088;2023-05-18T09:16:27;10.1;7.4;5.3
76043;PMS7003;64740;34.694;33.088;2023-05-18T09:22:07;8.9;7.3;4.9
76043;PMS7003;64740;34.694;33.088;2023-05-18T09:27:07;9.6;7.8;5.6
76043;PMS7003;64740;34.694;33.088;2023-05-18T09:32:00;8.4;7.5;5.1
76043;PMS7003;64740;34.694;33.088;2023-05-18T09:36:45;8.9;7.1;4.9
76043;PMS7003;64740;34.694;33.088;2023-05-18T09:41:59;8.4;6.9;5.1
76043;PMS7003;64740;34.694;33.088;2023-05-18T09:46:55;10.2;7.7;5.2
76043;PMS7003;64740;34.694;33.088;2023-05-18T09:51:47;8.7;7.1;5.2
76043;PMS7003;64740;34.694;33.088;2023-05-18T09:56:49;9.5;6.7;4.9
76043;PMS7003;64740;34.694;33.088;2023-05-18T10:02:07;10.3;7.4;5.4
76043;PMS7003;64740;34.694;33.088;2023-05-18T10:06:53;9.3;6.9;5.1
76043;PMS7003;64740;34.694;33.088;2023-05-18T10:11:37;9.5;7;5
76043;PMS7003;64740;34.694;33.088;2023-05-18T10:16:27;8.7;6.6;4.7
76043;PMS7003;64740;34.694;33.088;2023-05-18T10:21:53;8.8;6.4;4.5
76043;PMS7003;64740;34.694;33.088;2023-05-18T10:26:27;7.7;6.2;4.5
76043;PMS7003;64740;34.694;33.088;2023-05-18T10:31:59;9.3;7.3;5.3
76043;PMS7003;64740;34.694;33.088;2023-05-18T10:37:00;9.1;7.2;5.1
76043;PMS7003;64740;34.694;33.088;2023-05-18T10:41:43;11.1;7.8;5.1
76043;PMS7003;64740;34.694;33.088;2023-05-18T10:47:07;8.7;6.9;4.1
76043;PMS7003;64740;34.694;33.088;2023-05-18T10:52:07;9.1;7.2;4.8
76043;PMS7003;64740;34.694;33.088;2023-05-18T10:56:27;9.6;6.9;4.8
76043;PMS7003;64740;34.694;33.088;2023-05-18T11:01:47;8.3;6.2;3.8
76043;PMS7003;64740;34.694;33.088;2023-05-18T11:07:09;10.1;7.1;5
76043;PMS7003;64740;34.694;33.088;2023-05-18T11:11:55;8.3;6.4;4.5
76043;PMS7003;64740;34.694;33.088;2023-05-18T11:17:13;8;6.3;4.1
76043;PMS7003;64740;34.694;33.088;2023-05-18T11:21:53;8.5;6.5;4.6
76043;PMS7003;64740;34.694;33.088;2023-05-18T11:26:57;8.6;6.3;4.3
76043;PMS7003;64740;34.694;33.088;2023-05-18T11:31:41;7.2;5.7;4
76043;PMS7003;64740;34.694;33.088;2023-05-18T11:36:27;9.1;6.6;4.6
76043;PMS7003;64740;34.694;33.088;2023-05-18T11:42:05;7.3;6.1;4.3
76043;PMS7003;64740;34.694;33.088;2023-05-18T11:47:07;6.6;5.7;4.2
76043;PMS7003;64740;34.694;33.088;2023-05-18T11:52:03;8.2;6.2;4.1
76043;PMS7003;64740;34.694;33.088;2023-05-18T11:57:05;7.2;6.1;4.5
76043;PMS7003;64740;34.694;33.088;2023-05-18T12:01:27;9.4;6.7;5
76043;PMS7003;64740;34.694;33.088;2023-05-18T12:06:27;7.1;5.7;4
76043;PMS7003;64740;34.694;33.088;2023-05-18T12:11:49;8.5;6.6;4.9
76043;PMS7003;64740;34.694;33.088;2023-05-18T12:17:09;8.6;6.5;4.7
76043;PMS7003;64740;34.694;33.088;2023-05-18T12:21:27;8;6.8;4.9
76043;PMS7003;64740;34.694;33.088;2023-05-18T12:26:45;8.7;6.6;4.6
76043;PMS7003;64740;34.694;33.088;2023-05-18T12:32:05;8.3;6.5;4.7
76043;PMS7003;64740;34.694;33.088;2023-05-18T12:36:27;8.6;6.4;4.5
76043;PMS7003;64740;34.694;33.088;2023-05-18T12:41:43;9;6.7;5.1
76043;PMS7003;64740;34.694;33.088;2023-05-18T12:46:47;8.2;7.1;5.2
76043;PMS7003;64740;34.694;33.088;2023-05-18T12:52:07;8.3;6.9;4.9
76043;PMS7003;64740;34.694;33.088;2023-05-18T12:56:53;8.5;6.8;5
76043;PMS7003;64740;34.694;33.088;2023-05-18T13:01:47;9.2;6.5;4.7
76043;PMS7003;64740;34.694;33.088;2023-05-18T13:06:49;9.7;7.1;5.2
76043;PMS7003;64740;34.694;33.088;2023-05-18T13:11:58;8.2;6.6;4.9
76043;PMS7003;64740;34.694;33.088;2023-05-18T13:16:48;9.8;7.8;5.5
76043;PMS7003;64740;34.694;33.088;2023-05-18T13:21:43;9.3;6.8;5.2
76043;PMS7003;64740;34.694;33.088;2023-05-18T13:26:43;7.5;6.3;4.4
76043;PMS7003;64740;34.694;33.088;2023-05-18T13:31:37;10.1;8;5.6
76043;PMS7003;64740;34.694;33.088;2023-05-18T13:37:01;8.1;6.2;4.7
76043;PMS7003;64740;34.694;33.088;2023-05-18T13:42:01;9.3;7.6;5.5
76043;PMS7003;64740;34.694;33.088;2023-05-18T13:46:37;8.9;6.4;4.9
76043;PMS7003;64740;34.694;33.088;2023-05-18T13:52:09;9.9;7.7;5.9
76043;PMS7003;64740;34.694;33.088;2023-05-18T13:56:37;8.9;7.2;5.1
76043;PMS7003;64740;34.694;33.088;2023-05-18T14:01:27;8.4;7.3;5.6
76043;PMS7003;64740;34.694;33.088;2023-05-18T14:06:55;10.1;8.1;5.9
76043;PMS7003;64740;34.694;33.088;2023-05-18T14:12:09;9.4;7.2;5.5
76043;PMS7003;64740;34.694;33.088;2023-05-18T14:16:49;9.2;7.8;5.5
76043;PMS7003;64740;34.694;33.088;2023-05-18T14:21:57;8.1;7;5.1
76043;PMS7003;64740;34.694;33.088;2023-05-18T14:26:55;8.5;7.2;5.4
76043;PMS7003;64740;34.694;33.088;2023-05-18T14:31:59;7.4;5.9;4.3
76043;PMS7003;64740;34.694;33.088;2023-05-18T14:36:43;8.3;6.9;5.3
76043;PMS7003;64740;34.694;33.088;2023-05-18T14:41:27;8.9;7.3;5.4
76043;PMS7003;64740;34.694;33.088;2023-05-18T14:46:57;8.7;7.1;5.2
76043;PMS7003;64740;34.694;33.088;2023-05-18T14:52:09;9.2;7.1;5.2
76043;PMS7003;64740;34.694;33.088;2023-05-18T14:56:37;8.5;7.2;5.2
76043;PMS7003;64740;34.694;33.088;2023-05-18T15:02:09;8.2;7.2;5.4
76043;PMS7003;64740;34.694;33.088;2023-05-18T15:06:39;6.3;5.7;4.1
76043;PMS7003;64740;34.694;33.088;2023-05-18T15:11:27;7.4;6.6;5.1
76043;PMS7003;64740;34.694;33.088;2023-05-18T15:16:27;7.6;5.7;4.4
76043;PMS7003;64740;34.694;33.088;2023-05-18T15:21:57;7.8;6.8;5
76043;PMS7003;64740;34.694;33.088;2023-05-18T15:26:49;7.3;6.3;4.9
76043;PMS7003;64740;34.694;33.088;2023-05-18T15:31:53;8.2;6.9;5.2
76043;PMS7003;64740;34.694;33.088;2023-05-18T15:37:11;7.9;7.3;5.1
76043;PMS7003;64740;34.694;33.088;2023-05-18T15:41:39;7.2;5.9;4.5
76043;PMS7003;64740;34.694;33.088;2023-05-18T15:46:57;7.5;6.3;4.5
76043;PMS7003;64740;34.694;33.088;2023-05-18T15:51:27;7.9;6.7;4.8
76043;PMS7003;64740;34.694;33.088;2023-05-18T15:57:11;8.2;6.1;4.5
76043;PMS7003;64740;34.694;33.088;2023-05-18T16:01:51;7.5;6.2;4.4
76043;PMS7003;64740;34.694;33.088;2023-05-18T16:06:27;7.7;6.7;4.8
76043;PMS7003;64740;34.694;33.088;2023-05-18T16:11:51;7.6;7.1;5
76043;PMS7003;64740;34.694;33.088;2023-05-18T16:17:11;8.7;7.1;5
76043;PMS7003;64740;34.694;33.088;2023-05-18T16:21:37;9.3;7.1;5
76043;PMS7003;64740;34.694;33.088;2023-05-18T16:26:51;7.2;6.1;4.5
76043;PMS7003;64740;34.694;33.088;2023-05-18T16:31:27;6.9;5.2;4
76043;PMS7003;64740;34.694;33.088;2023-05-18T16:36:37;7.2;5.7;4.3
76043;PMS7003;64740;34.694;33.088;2023-05-18T16:42:11;6.7;5.5;4.3
76043;PMS7003;64740;34.694;33.088;2023-05-18T16:47:09;7.7;5.8;4.3
76043;PMS7003;64740;34.694;33.088;2023-05-18T16:51:37;7.8;6.6;4.8
76043;PMS7003;64740;34.694;33.088;2023-05-18T16:57:11;8.6;6.7;5
76043;PMS7003;64740;34.694;33.088;2023-05-18T17:01:49;8.2;6.6;4.9
76043;PMS7003;64740;34.694;33.088;2023-05-18T17:06:39;8.2;6.7;4.9
76043;PMS7003;64740;34.694;33.088;2023-05-18T17:11:59;8.5;7;5
76043;PMS7003;64740;34.694;33.088;2023-05-18T17:16:57;9.2;7.7;5.4
76043;PMS7003;64740;34.694;33.088;2023-05-18T17:21:27;8;6.9;5.2
76043;PMS7003;64740;34.694;33.088;2023-05-18T17:27:11;10;8;5.9
76043;PMS7003;64740;34.694;33.088;2023-05-18T17:32:09;11.4;8.9;6.5
76043;PMS7003;64740;34.694;33.088;2023-05-18T17:37:03;9.7;8.3;6.2
76043;PMS7003;64740;34.694;33.088;2023-05-18T17:41:27;8.1;7;5.2
76043;PMS7003;64740;34.694;33.088;2023-05-18T17:47:03;8.9;7.3;5
76043;PMS7003;64740;34.694;33.088;2023-05-18T17:51:59;9.2;7.5;5.7
76043;PMS7003;64740;34.694;33.088;2023-05-18T17:56:57;9.9;8;5.4
76043;PMS7003;64740;34.694;33.088;2023-05-18T18:01:27;7.9;6.4;4.5
76043;PMS7003;64740;34.694;33.088;2023-05-18T18:07:07;8.5;7.2;5
76043;PMS7003;64740;34.694;33.088;2023-05-18T18:11:59;8.9;7.7;5.7
76043;PMS7003;64740;34.694;33.088;2023-05-18T18:16:37;9.4;8;6.1
76043;PMS7003;64740;34.694;33.088;2023-05-18T18:21:27;9.9;8.2;6.2
76043;PMS7003;64740;34.694;33.088;2023-05-18T18:26:57;9.4;7.8;5.7
76043;PMS7003;64740;34.694;33.088;2023-05-18T18:31:27;10.1;8.4;5.9
76043;PMS7003;64740;34.694;33.088;2023-05-18T18:37:09;9;7.2;5.5
76043;PMS7003;64740;34.694;33.088;2023-05-18T18:42:13;8.6;7.7;5.8
76043;PMS7003;64740;34.694;33.088;2023-05-18T18:46:47;8.9;7.9;5.8
76043;PMS7003;64740;34.694;33.088;2023-05-18T18:51:47;10.2;8.4;6.3
76043;PMS7003;64740;34.694;33.088;2023-05-18T18:56:47;9.8;8.3;5.9
76043;PMS7003;64740;34.694;33.088;2023-05-18T19:02:09;10.2;7.4;5.7
76043;PMS7003;64740;34.694;33.088;2023-05-18T19:06:55;9.3;8.2;6.1
76043;PMS7003;64740;34.694;33.088;2023-05-18T19:11:47;9.1;7.9;5.8
76043;PMS7003;64740;34.694;33.088;2023-05-18T19:16:37;8.7;6.6;4.8
76043;PMS7003;64740;34.694;33.088;2023-05-18T19:21:57;7.4;6.1;4.9
76043;PMS7003;64740;34.694;33.088;2023-05-18T19:26:25;9.2;7.3;5.3
76043;PMS7003;64740;34.694;33.088;2023-05-18T19:31:50;8.8;7;5.2
76043;PMS7003;64740;34.694;33.088;2023-05-18T19:36:59;7.7;6.6;4.8
76043;PMS7003;64740;34.694;33.088;2023-05-18T19:41:45;8.2;6.5;4.9
76043;PMS7003;64740;34.694;33.088;2023-05-18T19:47:11;8.7;7.5;5.5
76043;PMS7003;64740;34.694;33.088;2023-05-18T19:51:53;9;7;5.4
76043;PMS7003;64740;34.694;33.088;2023-05-18T19:56:27;9.4;7.9;5.6
76043;PMS7003;64740;34.694;33.088;2023-05-18T20:02:09;8.9;7.6;5.7
76043;PMS7003;64740;34.694;33.088;2023-05-18T20:06:37;8.7;7.2;5.1
76043;PMS7003;64740;34.694;33.088;2023-05-18T20:11:27;9.3;7.8;5.7
76043;PMS7003;64740;34.694;33.088;2023-05-18T20:17:01;8.9;7.6;5.4
76043;PMS7003;64740;34.694;33.088;2023-05-18T20:22:13;9.6;7.5;5.5
76043;PMS7003;64740;34.694;33.088;2023-05-18T20:26:37;9.1;7.8;5.6
76043;PMS7003;64740;34.694;33.088;2023-05-18T20:32:13;9.3;8.2;5.4
76043;PMS7003;64740;34.694;33.088;2023-05-18T20:37:11;9.2;7.3;5.4
76043;PMS7003;64740;34.694;33.088;2023-05-18T20:42:01;9.2;8;5.6
76043;PMS7003;64740;34.694;33.088;2023-05-18T20:46:37;8.8;8;5.7
76043;PMS7003;64740;34.694;33.088;2023-05-18T20:52:01;9.2;7.8;5.7
76043;PMS7003;64740;34.694;33.088;2023-05-18T20:56:59;9.8;8.2;5.9
76043;PMS7003;64740;34.694;33.088;2023-05-18T21:02:09;10.3;8.7;5.8
76043;PMS7003;64740;34.694;33.088;2023-05-18T21:06:37;9;7.8;5.6
76043;PMS7003;64740;34.694;33.088;2023-05-18T21:12:09;9.5;7.4;5.2
76043;PMS7003;64740;34.694;33.088;2023-05-18T21:16:57;10.3;8.1;5.9
76043;PMS7003;64740;34.694;33.088;2023-05-18T21:21:35;8.2;7.6;5.7
76043;PMS7003;64740;34.694;33.088;2023-05-18T21:26:49;9.7;7.7;5.4
76043;PMS7003;64740;34.694;33.088;2023-05-18T21:31:55;8.7;7.3;5.1
76043;PMS7003;64740;34.694;33.088;2023-05-18T21:36:35;8.8;7.5;5.5
76043;PMS7003;64740;34.694;33.088;2023-05-18T21:42:01;10;7.7;5.4
76043;PMS7003;64740;34.694;33.088;2023-05-18T21:46:59;9.4;7.6;5
76043;PMS7003;64740;34.694;33.088;2023-05-18T21:51:25;9;7.7;5.5
76043;PMS7003;64740;34.694;33.088;2023-05-18T21:57:09;8.7;7.5;5.5
76043;PMS7003;64740;34.694;33.088;2023-05-18T22:01:47;8.4;6.6;5
76043;PMS7003;64740;34.694;33.088;2023-05-18T22:06:25;9.4;7.7;5.7
76043;PMS7003;64740;34.694;33.088;2023-05-18T22:11:47;8.7;7.1;5.2
76043;PMS7003;64740;34.694;33.088;2023-05-18T22:17:09;9.4;7.4;5.2
76043;PMS7003;64740;34.694;33.088;2023-05-18T22:22:01;9.1;6.8;4.9
76043;PMS7003;64740;34.694;33.088;2023-05-18T22:26:33;10;8.2;5.7
76043;PMS7003;64740;34.694;33.088;2023-05-18T22:31:55;8.3;7.5;5.1
76043;PMS7003;64740;34.694;33.088;2023-05-18T22:37:01;10.7;8.1;5.6
76043;PMS7003;64740;34.694;33.088;2023-05-18T22:41:25;9.6;7.6;5.3
76043;PMS7003;64740;34.694;33.088;2023-05-18T22:46:37;9.4;8;5.5
76043;PMS7003;64740;34.694;33.088;2023-05-18T22:52:09;9;7.5;5.5
76043;PMS7003;64740;34.694;33.088;2023-05-18T22:57:09;9.5;7.3;5.3
76043;PMS7003;64740;34.694;33.088;2023-05-18T23:01:35;9;7.2;5.1
76043;PMS7003;64740;34.694;33.088;2023-05-18T23:07:07;9.5;7.8;5.2
76043;PMS7003;64740;34.694;33.088;2023-05-18T23:11:33;8.2;7.2;5.3
76043;PMS7003;64740;34.694;33.088;2023-05-18T23:16:35;9.2;7.5;5.5
76043;PMS7003;64740;34.694;33.088;2023-05-18T23:21:55;8.9;7.5;5.3
76043;PMS7003;64740;34.694;33.088;2023-05-18T23:27:07;9;7.4;4.9
76043;PMS7003;64740;34.694;33.088;2023-05-18T23:31:45;9.8;8.1;5.7
76043;PMS7003;64740;34.694;33.088;2023-05-18T23:37:06;10.4;7.6;5.4
76043;PMS7003;64740;34.694;33.088;2023-05-18T23:42:05;9.6;7.8;5.6
76043;PMS7003;64740;34.694;33.088;2023-05-18T23:46:59;10.2;8.1;5.8
76043;PMS7003;64740;34.694;33.088;2023-05-18T23:51:29;8.7;7;5.3
76043;PMS7003;64740;34.694;33.088;2023-05-18T23:56:57;8.9;7.4;5.7
